Biscayne Natl Park, Florida
Current Conditions -  °F | °C
As of 4:58 AM on Sunday 21 Dec 2014 (Local Time) from KHST Reporting Station
Clear Clear  
Wind Chill: 62°   Ceiling: Unl
Heat Index: 62°   Visibility: 10mi
Dew Point: 60°   Wind: 2mph
Humidity: 94%   Direction: 330°NNW
Pressure: 30.04"   Gusts: NA
Location:  25.42°N, 80.2°W
Report Text: KHST 210958Z AUTO 33002KT 10SM CLR 17/16 A3004 RMK AO2 SLP176 T01670157 $
Loading
Personal Weather Stations






























Interactive Weather Map New forecast layout! Learn more

10-Day Weather Forecast

Advertisements
Track Severe Weather on mobile